To NAV CANADA Home Page Login to a new session Search on AWWS site Feedback and Comments Disclaimer Vers la page française équivalente Tips FAQ What's new on the site To the Forecasts and Observations / NOTAM section To "File a Flight Plan" website Publications and other links Update of the User's profile FIC Telephone Numbers My Weather Data Folder Route Weather Data Regional Weather Data Local Weather Data To the Forecasts and Observations / NOTAM section
Request Generated 09/28/2016 at 05:07:26 UTC . Weather information available at that time is displayed.

METAR/TAF

TORONTO/LESTER B. PEARSON INTL/ON    

METAR CYYZ 280500Z 09002KT 15SM OVC130 16/05 A2987 RMK AC8 SLP115
DENSITY ALT 800FT=
METAR CYYZ 280400Z 20002KT 15SM BKN130 16/05 A2986 RMK AC7 SLP112
DENSITY ALT 900FT=
METAR CYYZ 280300Z 20003KT 15SM FEW130 BKN140 16/06 A2985 RMK AC2AC5
SLP110 DENSITY ALT 800FT=

TAF CYYZ 280238Z 2803/2906 20005KT P6SM SCT120 BKN220
FM280500 14005KT P6SM BKN120
FM281400 12010KT P6SM BKN060
FM281800 11010G20KT P6SM SCT210
FM282100 08012G22KT P6SM SCT070
FM290300 07015G25KT P6SM -SHRA SCT020 BKN060 OVC180 PROB30
2903/2906 VRB20G35KT 11/2SM +TSRA BR BKN015 OVC050CB
RMK NXT FCST BY 280600Z=
Your time UTC time
Weather data provided by Environment Canada and NAV CANADA